sensor_id;sensor_type;location;lat;lon;timestamp;pressure;altitude;pressure_sealevel;temperature;humidity
8653;BME280;4364;52.426;9.424;2023-02-23T00:01:25;100639.69;;;6.70;100.00
8653;BME280;4364;52.426;9.424;2023-02-23T00:03:57;100639.75;;;6.75;100.00
8653;BME280;4364;52.426;9.424;2023-02-23T00:06:26;100638.66;;;6.76;100.00
8653;BME280;4364;52.426;9.424;2023-02-23T00:08:53;100640.09;;;6.84;100.00
8653;BME280;4364;52.426;9.424;2023-02-23T00:11:20;100640.91;;;6.84;100.00
8653;BME280;4364;52.426;9.424;2023-02-23T00:13:48;100634.44;;;6.85;100.00
8653;BME280;4364;52.426;9.424;2023-02-23T00:16:17;100644.91;;;6.77;100.00
8653;BME280;4364;52.426;9.424;2023-02-23T00:18:49;100638.34;;;6.73;100.00
8653;BME280;4364;52.426;9.424;2023-02-23T00:26:17;100647.59;;;6.77;100.00
8653;BME280;4364;52.426;9.424;2023-02-23T00:28:47;100639.78;;;6.80;100.00
8653;BME280;4364;52.426;9.424;2023-02-23T00:31:14;100645.19;;;6.80;100.00
8653;BME280;4364;52.426;9.424;2023-02-23T00:33:40;100645.00;;;6.87;100.00
8653;BME280;4364;52.426;9.424;2023-02-23T00:36:12;100637.91;;;6.81;100.00
8653;BME280;4364;52.426;9.424;2023-02-23T00:38:40;100637.81;;;6.98;100.00
8653;BME280;4364;52.426;9.424;2023-02-23T00:41:10;100643.91;;;7.10;100.00
8653;BME280;4364;52.426;9.424;2023-02-23T00:43:40;100647.66;;;7.09;100.00
8653;BME280;4364;52.426;9.424;2023-02-23T00:46:17;100646.69;;;7.20;100.00
8653;BME280;4364;52.426;9.424;2023-02-23T00:48:44;100649.91;;;7.17;100.00
8653;BME280;4364;52.426;9.424;2023-02-23T00:51:12;100650.47;;;7.19;100.00
8653;BME280;4364;52.426;9.424;2023-02-23T00:53:39;100644.91;;;7.31;100.00
8653;BME280;4364;52.426;9.424;2023-02-23T00:56:07;100654.66;;;7.32;100.00
8653;BME280;4364;52.426;9.424;2023-02-23T00:58:35;100648.69;;;7.30;100.00
8653;BME280;4364;52.426;9.424;2023-02-23T01:01:05;100651.34;;;7.25;100.00
8653;BME280;4364;52.426;9.424;2023-02-23T01:03:32;100652.50;;;7.34;100.00
8653;BME280;4364;52.426;9.424;2023-02-23T01:06:00;100661.47;;;7.40;100.00
8653;BME280;4364;52.426;9.424;2023-02-23T01:08:36;100658.47;;;7.36;100.00
8653;BME280;4364;52.426;9.424;2023-02-23T01:11:08;100661.97;;;7.32;100.00
8653;BME280;4364;52.426;9.424;2023-02-23T01:13:35;100659.56;;;7.35;100.00
8653;BME280;4364;52.426;9.424;2023-02-23T01:16:10;100665.53;;;7.37;100.00
8653;BME280;4364;52.426;9.424;2023-02-23T01:18:38;100665.78;;;7.36;100.00
8653;BME280;4364;52.426;9.424;2023-02-23T01:21:13;100656.06;;;7.40;100.00
8653;BME280;4364;52.426;9.424;2023-02-23T01:23:40;100668.28;;;7.42;100.00
8653;BME280;4364;52.426;9.424;2023-02-23T01:28:49;100667.78;;;7.46;100.00
8653;BME280;4364;52.426;9.424;2023-02-23T01:31:17;100665.53;;;7.37;100.00
8653;BME280;4364;52.426;9.424;2023-02-23T01:33:44;100667.22;;;7.44;100.00
8653;BME280;4364;52.426;9.424;2023-02-23T01:36:11;100668.53;;;7.41;100.00
8653;BME280;4364;52.426;9.424;2023-02-23T01:38:40;100672.59;;;7.38;100.00
8653;BME280;4364;52.426;9.424;2023-02-23T01:41:07;100672.09;;;7.47;100.00
8653;BME280;4364;52.426;9.424;2023-02-23T01:43:35;100678.59;;;7.46;100.00
8653;BME280;4364;52.426;9.424;2023-02-23T01:46:20;100678.13;;;7.54;100.00
8653;BME280;4364;52.426;9.424;2023-02-23T01:48:47;100675.88;;;7.46;100.00
8653;BME280;4364;52.426;9.424;2023-02-23T01:51:18;100681.84;;;7.48;100.00
8653;BME280;4364;52.426;9.424;2023-02-23T01:54:06;100684.59;;;7.53;100.00
8653;BME280;4364;52.426;9.424;2023-02-23T01:56:39;100681.50;;;7.39;100.00
8653;BME280;4364;52.426;9.424;2023-02-23T01:59:11;100681.63;;;7.54;100.00
8653;BME280;4364;52.426;9.424;2023-02-23T02:01:41;100679.66;;;7.45;100.00
8653;BME280;4364;52.426;9.424;2023-02-23T02:04:09;100681.34;;;7.51;100.00
8653;BME280;4364;52.426;9.424;2023-02-23T02:06:43;100682.63;;;7.43;100.00
8653;BME280;4364;52.426;9.424;2023-02-23T02:09:14;100680.31;;;7.30;100.00
8653;BME280;4364;52.426;9.424;2023-02-23T02:11:45;100677.06;;;7.28;100.00
8653;BME280;4364;52.426;9.424;2023-02-23T02:14:25;100680.69;;;7.38;100.00
8653;BME280;4364;52.426;9.424;2023-02-23T02:17:10;100683.22;;;7.23;100.00
8653;BME280;4364;52.426;9.424;2023-02-23T02:22:53;100683.44;;;7.16;100.00
8653;BME280;4364;52.426;9.424;2023-02-23T02:25:27;100675.38;;;7.21;100.00
8653;BME280;4364;52.426;9.424;2023-02-23T02:28:31;100679.09;;;7.15;100.00
8653;BME280;4364;52.426;9.424;2023-02-23T02:39:58;100675.63;;;7.20;100.00
8653;BME280;4364;52.426;9.424;2023-02-23T02:42:50;100683.63;;;7.10;100.00
8653;BME280;4364;52.426;9.424;2023-02-23T02:45:38;100690.19;;;7.14;100.00
8653;BME280;4364;52.426;9.424;2023-02-23T02:48:16;100683.94;;;7.13;100.00
8653;BME280;4364;52.426;9.424;2023-02-23T02:53:23;100685.22;;;7.05;100.00
8653;BME280;4364;52.426;9.424;2023-02-23T02:55:53;100688.22;;;7.09;100.00
8653;BME280;4364;52.426;9.424;2023-02-23T02:58:22;100686.78;;;7.01;100.00
8653;BME280;4364;52.426;9.424;2023-02-23T03:00:50;100681.63;;;7.22;100.00
8653;BME280;4364;52.426;9.424;2023-02-23T03:03:39;100669.16;;;7.21;100.00
8653;BME280;4364;52.426;9.424;2023-02-23T03:06:42;100679.50;;;7.02;100.00
8653;BME280;4364;52.426;9.424;2023-02-23T03:09:41;100666.59;;;7.09;100.00
8653;BME280;4364;52.426;9.424;2023-02-23T03:16:00;100672.16;;;6.97;100.00
8653;BME280;4364;52.426;9.424;2023-02-23T03:19:03;100674.53;;;6.94;100.00
8653;BME280;4364;52.426;9.424;2023-02-23T03:21:55;100680.28;;;7.24;100.00
8653;BME280;4364;52.426;9.424;2023-02-23T03:24:51;100680.88;;;7.04;100.00
8653;BME280;4364;52.426;9.424;2023-02-23T03:27:47;100676.00;;;7.07;100.00
8653;BME280;4364;52.426;9.424;2023-02-23T03:30:42;100676.81;;;7.02;100.00
8653;BME280;4364;52.426;9.424;2023-02-23T03:33:44;100684.66;;;7.03;100.00
8653;BME280;4364;52.426;9.424;2023-02-23T03:36:36;100678.41;;;7.03;100.00
8653;BME280;4364;52.426;9.424;2023-02-23T03:39:30;100680.00;;;6.99;100.00
8653;BME280;4364;52.426;9.424;2023-02-23T03:42:19;100678.41;;;7.03;100.00
8653;BME280;4364;52.426;9.424;2023-02-23T03:45:10;100680.88;;;7.04;100.00
8653;BME280;4364;52.426;9.424;2023-02-23T03:48:00;100676.00;;;7.07;100.00
8653;BME280;4364;52.426;9.424;2023-02-23T03:50:52;100681.44;;;7.07;100.00
8653;BME280;4364;52.426;9.424;2023-02-23T03:53:46;100679.56;;;7.07;100.00
8653;BME280;4364;52.426;9.424;2023-02-23T03:56:35;100680.38;;;7.08;100.00
8653;BME280;4364;52.426;9.424;2023-02-23T03:59:27;100680.41;;;7.13;100.00
8653;BME280;4364;52.426;9.424;2023-02-23T04:02:15;100668.50;;;7.09;100.00
8653;BME280;4364;52.426;9.424;2023-02-23T04:05:06;100669.59;;;7.13;100.00
8653;BME280;4364;52.426;9.424;2023-02-23T04:07:54;100675.56;;;7.15;100.00
8653;BME280;4364;52.426;9.424;2023-02-23T04:10:46;100674.50;;;7.16;100.00
8653;BME280;4364;52.426;9.424;2023-02-23T04:13:35;100671.09;;;7.26;100.00
8653;BME280;4364;52.426;9.424;2023-02-23T04:16:06;100671.56;;;7.17;100.00
8653;BME280;4364;52.426;9.424;2023-02-23T04:18:35;100669.41;;;7.19;100.00
8653;BME280;4364;52.426;9.424;2023-02-23T04:21:03;100673.75;;;7.20;100.00
8653;BME280;4364;52.426;9.424;2023-02-23T04:23:31;100668.13;;;7.27;100.00
8653;BME280;4364;52.426;9.424;2023-02-23T04:25:58;100659.13;;;7.21;100.00
8653;BME280;4364;52.426;9.424;2023-02-23T04:28:26;100669.34;;;7.41;100.00
8653;BME280;4364;52.426;9.424;2023-02-23T04:30:52;100671.91;;;7.26;100.00
8653;BME280;4364;52.426;9.424;2023-02-23T04:33:20;100682.25;;;7.34;100.00
8653;BME280;4364;52.426;9.424;2023-02-23T04:35:53;100674.91;;;7.30;100.00
8653;BME280;4364;52.426;9.424;2023-02-23T04:38:21;100678.59;;;7.18;100.00
8653;BME280;4364;52.426;9.424;2023-02-23T04:40:48;100686.44;;;7.20;100.00
8653;BME280;4364;52.426;9.424;2023-02-23T04:43:15;100678.84;;;7.17;100.00
8653;BME280;4364;52.426;9.424;2023-02-23T04:45:43;100687.47;;;7.14;100.00
8653;BME280;4364;52.426;9.424;2023-02-23T04:48:09;100693.50;;;7.21;100.00
8653;BME280;4364;52.426;9.424;2023-02-23T04:50:36;100689.94;;;7.15;100.00
8653;BME280;4364;52.426;9.424;2023-02-23T04:53:02;100693.44;;;7.16;100.00
8653;BME280;4364;52.426;9.424;2023-02-23T04:55:29;100690.44;;;7.12;100.00
8653;BME280;4364;52.426;9.424;2023-02-23T04:57:57;100690.47;;;7.17;100.00
8653;BME280;4364;52.426;9.424;2023-02-23T05:00:25;100691.75;;;7.10;100.00
8653;BME280;4364;52.426;9.424;2023-02-23T05:02:52;100689.56;;;7.34;100.00
8653;BME280;4364;52.426;9.424;2023-02-23T05:05:19;100695.09;;;7.17;100.00
8653;BME280;4364;52.426;9.424;2023-02-23T05:07:46;100694.44;;;7.10;100.00
8653;BME280;4364;52.426;9.424;2023-02-23T05:10:12;100693.06;;;7.07;100.00
8653;BME280;4364;52.426;9.424;2023-02-23T05:12:39;100699.09;;;7.14;100.00
8653;BME280;4364;52.426;9.424;2023-02-23T05:15:06;100687.47;;;7.14;100.00
8653;BME280;4364;52.426;9.424;2023-02-23T05:17:32;100687.78;;;7.17;100.00
8653;BME280;4364;52.426;9.424;2023-02-23T05:19:59;100687.72;;;7.12;100.00
8653;BME280;4364;52.426;9.424;2023-02-23T05:22:25;100674.59;;;7.26;100.00
8653;BME280;4364;52.426;9.424;2023-02-23T05:24:52;100678.06;;;7.21;100.00
8653;BME280;4364;52.426;9.424;2023-02-23T05:27:21;100675.38;;;7.21;100.00
8653;BME280;4364;52.426;9.424;2023-02-23T05:29:48;100677.47;;;7.14;100.00
8653;BME280;4364;52.426;9.424;2023-02-23T05:32:14;100682.38;;;7.17;100.00
8653;BME280;4364;52.426;9.424;2023-02-23T05:34:41;100687.28;;;7.20;100.00
8653;BME280;4364;52.426;9.424;2023-02-23T05:37:07;100699.66;;;7.16;100.00
8653;BME280;4364;52.426;9.424;2023-02-23T05:39:34;100694.25;;;7.16;100.00
8653;BME280;4364;52.426;9.424;2023-02-23T05:42:01;100707.81;;;7.21;100.00
8653;BME280;4364;52.426;9.424;2023-02-23T05:44:27;100698.59;;;7.17;100.00
8653;BME280;4364;52.426;9.424;2023-02-23T05:46:54;100703.25;;;7.22;100.00
8653;BME280;4364;52.426;9.424;2023-02-23T05:49:20;100706.97;;;7.16;100.00
8653;BME280;4364;52.426;9.424;2023-02-23T05:51:47;100702.31;;;7.11;100.00
8653;BME280;4364;52.426;9.424;2023-02-23T05:54:13;100704.50;;;7.14;100.00
8653;BME280;4364;52.426;9.424;2023-02-23T05:56:41;100713.69;;;7.13;100.00
8653;BME280;4364;52.426;9.424;2023-02-23T05:59:07;100716.38;;;7.13;100.00
8653;BME280;4364;52.426;9.424;2023-02-23T06:01:34;100706.97;;;7.16;100.00
8653;BME280;4364;52.426;9.424;2023-02-23T06:04:01;100711.06;;;7.18;100.00
8653;BME280;4364;52.426;9.424;2023-02-23T06:06:29;100708.06;;;7.20;100.00
8653;BME280;4364;52.426;9.424;2023-02-23T06:08:56;100714.00;;;7.17;100.00
8653;BME280;4364;52.426;9.424;2023-02-23T06:11:22;100713.19;;;7.16;100.00
8653;BME280;4364;52.426;9.424;2023-02-23T06:13:49;100720.22;;;7.17;100.00
8653;BME280;4364;52.426;9.424;2023-02-23T06:16:15;100709.78;;;7.26;100.00
8653;BME280;4364;52.426;9.424;2023-02-23T06:18:42;100713.81;;;7.23;100.00
8653;BME280;4364;52.426;9.424;2023-02-23T06:21:09;100721.69;;;7.25;100.00
8653;BME280;4364;52.426;9.424;2023-02-23T06:23:35;100724.75;;;7.34;100.00
8653;BME280;4364;52.426;9.424;2023-02-23T06:26:01;100714.63;;;7.24;100.00
8653;BME280;4364;52.426;9.424;2023-02-23T06:28:28;100717.06;;;7.26;100.00
8653;BME280;4364;52.426;9.424;2023-02-23T06:30:55;100721.41;;;7.27;100.00
8653;BME280;4364;52.426;9.424;2023-02-23T06:33:22;100727.69;;;7.32;100.00
8653;BME280;4364;52.426;9.424;2023-02-23T06:35:49;100726.16;;;7.41;100.00
8653;BME280;4364;52.426;9.424;2023-02-23T06:38:16;100733.75;;;7.45;100.00
8653;BME280;4364;52.426;9.424;2023-02-23T06:40:42;100727.69;;;7.32;100.00
8653;BME280;4364;52.426;9.424;2023-02-23T06:43:09;100730.91;;;7.29;100.00
8653;BME280;4364;52.426;9.424;2023-02-23T06:45:36;100730.34;;;7.27;100.00
8653;BME280;4364;52.426;9.424;2023-02-23T06:48:02;100730.59;;;7.26;100.00
8653;BME280;4364;52.426;9.424;2023-02-23T06:50:29;100728.41;;;7.22;100.00
8653;BME280;4364;52.426;9.424;2023-02-23T06:52:56;100737.38;;;7.28;100.00
8653;BME280;4364;52.426;9.424;2023-02-23T06:55:23;100741.28;;;7.37;100.00
8653;BME280;4364;52.426;9.424;2023-02-23T06:57:50;100735.25;;;7.30;100.00
8653;BME280;4364;52.426;9.424;2023-02-23T07:00:20;100738.16;;;7.23;100.00
8653;BME280;4364;52.426;9.424;2023-02-23T07:02:46;100743.22;;;7.20;100.00
8653;BME280;4364;52.426;9.424;2023-02-23T07:05:13;100748.91;;;7.18;100.00
8653;BME280;4364;52.426;9.424;2023-02-23T07:07:39;100751.44;;;7.25;100.00
8653;BME280;4364;52.426;9.424;2023-02-23T07:10:07;100749.22;;;7.22;100.00
8653;BME280;4364;52.426;9.424;2023-02-23T07:12:34;100752.19;;;7.20;100.00
8653;BME280;4364;52.426;9.424;2023-02-23T07:15:02;100755.38;;;7.17;100.00
8653;BME280;4364;52.426;9.424;2023-02-23T07:17:29;100754.03;;;7.20;100.00
8653;BME280;4364;52.426;9.424;2023-02-23T07:19:56;100754.63;;;7.22;100.00
8653;BME280;4364;52.426;9.424;2023-02-23T07:22:22;100761.84;;;7.16;100.00
8653;BME280;4364;52.426;9.424;2023-02-23T07:24:50;100765.66;;;7.15;100.00
8653;BME280;4364;52.426;9.424;2023-02-23T07:27:17;100762.16;;;7.20;100.00
8653;BME280;4364;52.426;9.424;2023-02-23T07:29:43;100767.56;;;7.20;100.00
8653;BME280;4364;52.426;9.424;2023-02-23T07:32:10;100769.34;;;7.31;100.00
8653;BME280;4364;52.426;9.424;2023-02-23T07:34:37;100774.13;;;7.24;100.00
8653;BME280;4364;52.426;9.424;2023-02-23T07:37:03;100777.63;;;7.24;100.00
8653;BME280;4364;52.426;9.424;2023-02-23T07:39:30;100778.09;;;7.16;100.00
8653;BME280;4364;52.426;9.424;2023-02-23T07:41:57;100779.22;;;7.20;100.00
8653;BME280;4364;52.426;9.424;2023-02-23T07:44:23;100782.44;;;7.17;100.00
8653;BME280;4364;52.426;9.424;2023-02-23T07:46:50;100782.81;;;7.26;100.00
8653;BME280;4364;52.426;9.424;2023-02-23T07:49:18;100785.66;;;7.41;100.00
8653;BME280;4364;52.426;9.424;2023-02-23T07:51:45;100777.69;;;7.30;100.00
8653;BME280;4364;52.426;9.424;2023-02-23T07:54:12;100779.84;;;7.28;100.00
8653;BME280;4364;52.426;9.424;2023-02-23T07:56:40;100784.25;;;7.34;100.00
8653;BME280;4364;52.426;9.424;2023-02-23T07:59:06;100783.31;;;7.23;100.00
8653;BME280;4364;52.426;9.424;2023-02-23T08:01:33;100794.63;;;7.20;100.00
8653;BME280;4364;52.426;9.424;2023-02-23T08:03:59;100786.59;;;7.25;100.00
8653;BME280;4364;52.426;9.424;2023-02-23T08:06:26;100791.81;;;7.32;100.00
8653;BME280;4364;52.426;9.424;2023-02-23T08:08:53;100792.00;;;7.25;100.00
8653;BME280;4364;52.426;9.424;2023-02-23T08:11:19;100783.75;;;7.37;100.00
8653;BME280;4364;52.426;9.424;2023-02-23T08:13:46;100787.25;;;7.37;100.00
8653;BME280;4364;52.426;9.424;2023-02-23T08:16:12;100790.22;;;7.36;100.00
8653;BME280;4364;52.426;9.424;2023-02-23T08:18:40;100776.63;;;7.31;100.00
8653;BME280;4364;52.426;9.424;2023-02-23T08:21:06;100790.84;;;7.43;100.00
8653;BME280;4364;52.426;9.424;2023-02-23T08:23:33;100785.31;;;7.33;100.00
8653;BME280;4364;52.426;9.424;2023-02-23T08:26:01;100795.13;;;7.39;100.00
8653;BME280;4364;52.426;9.424;2023-02-23T08:28:29;100793.19;;;7.34;100.00
8653;BME280;4364;52.426;9.424;2023-02-23T08:30:56;100802.28;;;7.28;100.00
8653;BME280;4364;52.426;9.424;2023-02-23T08:33:25;100788.00;;;7.33;100.00
8653;BME280;4364;52.426;9.424;2023-02-23T08:35:51;100790.72;;;7.33;100.00
8653;BME280;4364;52.426;9.424;2023-02-23T08:38:19;100793.78;;;7.41;100.00
8653;BME280;4364;52.426;9.424;2023-02-23T08:40:45;100800.09;;;7.47;100.00
8653;BME280;4364;52.426;9.424;2023-02-23T08:43:12;100800.72;;;7.32;100.00
8653;BME280;4364;52.426;9.424;2023-02-23T08:45:38;100798.34;;;7.36;100.00
8653;BME280;4364;52.426;9.424;2023-02-23T08:48:06;100797.97;;;7.27;100.00
8653;BME280;4364;52.426;9.424;2023-02-23T08:50:33;100805.88;;;7.34;100.00
8653;BME280;4364;52.426;9.424;2023-02-23T08:52:59;100810.47;;;7.33;100.00
8653;BME280;4364;52.426;9.424;2023-02-23T08:55:26;100813.16;;;7.33;100.00
8653;BME280;4364;52.426;9.424;2023-02-23T08:57:52;100811.06;;;7.35;100.00
8653;BME280;4364;52.426;9.424;2023-02-23T09:00:19;100818.56;;;7.33;100.00
8653;BME280;4364;52.426;9.424;2023-02-23T09:02:46;100818.38;;;7.40;100.00
8653;BME280;4364;52.426;9.424;2023-02-23T09:05:13;100820.78;;;7.36;100.00
8653;BME280;4364;52.426;9.424;2023-02-23T09:07:42;100823.75;;;7.35;100.00
8653;BME280;4364;52.426;9.424;2023-02-23T09:10:12;100815.63;;;7.35;100.00
8653;BME280;4364;52.426;9.424;2023-02-23T09:12:39;100825.50;;;7.46;100.00
8653;BME280;4364;52.426;9.424;2023-02-23T09:15:06;100821.56;;;7.32;100.00
8653;BME280;4364;52.426;9.424;2023-02-23T09:17:33;100834.00;;;7.33;100.00
8653;BME280;4364;52.426;9.424;2023-02-23T09:19:59;100830.50;;;7.32;100.00
8653;BME280;4364;52.426;9.424;2023-02-23T09:22:27;100833.75;;;7.34;100.00
8653;BME280;4364;52.426;9.424;2023-02-23T09:24:53;100828.22;;;7.46;100.00
8653;BME280;4364;52.426;9.424;2023-02-23T09:27:20;100834.72;;;7.45;100.00
8653;BME280;4364;52.426;9.424;2023-02-23T09:29:47;100834.00;;;7.33;100.00
8653;BME280;4364;52.426;9.424;2023-02-23T09:32:13;100830.31;;;7.39;100.00
8653;BME280;4364;52.426;9.424;2023-02-23T09:34:40;100835.47;;;7.40;100.00
8653;BME280;4364;52.426;9.424;2023-02-23T09:37:06;100840.94;;;7.46;100.00
8653;BME280;4364;52.426;9.424;2023-02-23T09:39:33;100844.56;;;7.56;100.00
8653;BME280;4364;52.426;9.424;2023-02-23T09:45:08;100839.78;;;7.64;100.00
8653;BME280;4364;52.426;9.424;2023-02-23T09:47:48;100840.09;;;7.67;100.00
8653;BME280;4364;52.426;9.424;2023-02-23T09:50:23;100842.75;;;7.62;100.00
8653;BME280;4364;52.426;9.424;2023-02-23T09:52:57;100846.56;;;7.66;100.00
8653;BME280;4364;52.426;9.424;2023-02-23T09:55:28;100845.34;;;7.52;100.00
8653;BME280;4364;52.426;9.424;2023-02-23T09:58:01;100847.97;;;7.47;100.00
8653;BME280;4364;52.426;9.424;2023-02-23T10:00:36;100853.66;;;7.45;100.00
8653;BME280;4364;52.426;9.424;2023-02-23T10:03:18;100853.19;;;7.53;100.00
8653;BME280;4364;52.426;9.424;2023-02-23T10:05:54;100855.25;;;7.46;100.00
8653;BME280;4364;52.426;9.424;2023-02-23T10:08:37;100854.22;;;7.47;100.00
8653;BME280;4364;52.426;9.424;2023-02-23T10:14:34;100859.44;;;7.54;100.00
8653;BME280;4364;52.426;9.424;2023-02-23T10:17:34;100861.25;;;7.48;100.00
8653;BME280;4364;52.426;9.424;2023-02-23T10:20:26;100863.56;;;7.39;100.00
8653;BME280;4364;52.426;9.424;2023-02-23T10:23:02;100864.38;;;7.40;100.00
8653;BME280;4364;52.426;9.424;2023-02-23T10:25:30;100868.72;;;7.41;100.00
8653;BME280;4364;52.426;9.424;2023-02-23T10:28:00;100859.56;;;7.42;100.00
8653;BME280;4364;52.426;9.424;2023-02-23T10:30:30;100869.34;;;7.48;100.00
8653;BME280;4364;52.426;9.424;2023-02-23T10:33:03;100865.53;;;7.44;100.00
8653;BME280;4364;52.426;9.424;2023-02-23T10:35:31;100876.66;;;7.48;100.00
8653;BME280;4364;52.426;9.424;2023-02-23T10:38:00;100879.00;;;7.61;100.00
8653;BME280;4364;52.426;9.424;2023-02-23T10:40:54;100878.44;;;7.59;100.00
8653;BME280;4364;52.426;9.424;2023-02-23T10:43:21;100868.66;;;7.58;100.00
8653;BME280;4364;52.426;9.424;2023-02-23T10:45:51;100871.47;;;7.68;100.00
8653;BME280;4364;52.426;9.424;2023-02-23T10:48:21;100877.88;;;7.57;100.00
8653;BME280;4364;52.426;9.424;2023-02-23T10:50:53;100869.22;;;7.60;100.00
8653;BME280;4364;52.426;9.424;2023-02-23T10:53:25;100864.44;;;7.67;100.00
8653;BME280;4364;52.426;9.424;2023-02-23T10:56:05;100863.13;;;7.70;100.00
8653;BME280;4364;52.426;9.424;2023-02-23T10:58:58;100868.53;;;7.70;100.00
8653;BME280;4364;52.426;9.424;2023-02-23T11:01:35;100870.13;;;7.66;100.00
8653;BME280;4364;52.426;9.424;2023-02-23T11:04:29;100860.59;;;7.63;100.00
8653;BME280;4364;52.426;9.424;2023-02-23T11:07:17;100858.41;;;7.60;100.00
8653;BME280;4364;52.426;9.424;2023-02-23T11:09:45;100862.25;;;7.64;100.00
8653;BME280;4364;52.426;9.424;2023-02-23T11:12:36;100865.25;;;7.68;100.00
8653;BME280;4364;52.426;9.424;2023-02-23T11:18:48;100858.75;;;7.64;100.00
8653;BME280;4364;52.426;9.424;2023-02-23T11:21:33;100858.47;;;7.65;100.00
8653;BME280;4364;52.426;9.424;2023-02-23T11:24:18;100856.59;;;7.66;100.00
8653;BME280;4364;52.426;9.424;2023-02-23T11:26:48;100853.94;;;7.71;100.00
8653;BME280;4364;52.426;9.424;2023-02-23T11:31:51;100858.41;;;7.60;100.00
8653;BME280;4364;52.426;9.424;2023-02-23T11:34:28;100862.00;;;7.66;100.00
8653;BME280;4364;52.426;9.424;2023-02-23T11:37:06;100855.97;;;7.58;100.00
8653;BME280;4364;52.426;9.424;2023-02-23T11:39:33;100854.19;;;7.69;100.00
8653;BME280;4364;52.426;9.424;2023-02-23T11:42:12;100848.47;;;7.66;100.00
8653;BME280;4364;52.426;9.424;2023-02-23T11:44:40;100851.38;;;7.59;100.00
8653;BME280;4364;52.426;9.424;2023-02-23T11:47:14;100851.97;;;7.66;100.00
8653;BME280;4364;52.426;9.424;2023-02-23T11:49:44;100849.28;;;7.66;100.00
8653;BME280;4364;52.426;9.424;2023-02-23T11:52:16;100845.75;;;7.66;100.00
8653;BME280;4364;52.426;9.424;2023-02-23T11:55:04;100850.28;;;7.60;100.00
8653;BME280;4364;52.426;9.424;2023-02-23T11:57:34;100837.50;;;7.77;100.00
8653;BME280;4364;52.426;9.424;2023-02-23T12:00:10;100840.44;;;7.76;100.00
8653;BME280;4364;52.426;9.424;2023-02-23T12:02:54;100841.22;;;7.71;100.00
8653;BME280;4364;52.426;9.424;2023-02-23T12:05:28;100839.41;;;7.77;100.00
8653;BME280;4364;52.426;9.424;2023-02-23T12:08:14;100834.38;;;7.64;100.00
8653;BME280;4364;52.426;9.424;2023-02-23T12:10:46;100831.97;;;7.67;100.00
8653;BME280;4364;52.426;9.424;2023-02-23T12:13:55;100830.44;;;7.76;100.00
8653;BME280;4364;52.426;9.424;2023-02-23T12:16:28;100828.75;;;7.70;100.00
8653;BME280;4364;52.426;9.424;2023-02-23T12:19:20;100827.41;;;7.73;100.00
8653;BME280;4364;52.426;9.424;2023-02-23T12:22:02;100823.16;;;7.77;100.00
8653;BME280;4364;52.426;9.424;2023-02-23T12:24:51;100819.06;;;7.74;100.00
8653;BME280;4364;52.426;9.424;2023-02-23T12:27:26;100822.31;;;7.76;100.00
8653;BME280;4364;52.426;9.424;2023-02-23T12:30:14;100830.31;;;7.93;100.00
8653;BME280;4364;52.426;9.424;2023-02-23T12:33:03;100819.69;;;7.87;100.00
8653;BME280;4364;52.426;9.424;2023-02-23T12:35:45;100830.03;;;7.90;100.00
8653;BME280;4364;52.426;9.424;2023-02-23T12:41:38;100828.16;;;7.90;100.00
8653;BME280;4364;52.426;9.424;2023-02-23T12:46:45;100831.56;;;7.81;100.00
8653;BME280;4364;52.426;9.424;2023-02-23T12:49:40;100825.03;;;7.76;100.00
8653;BME280;4364;52.426;9.424;2023-02-23T12:54:36;100828.31;;;7.78;100.00
8653;BME280;4364;52.426;9.424;2023-02-23T12:57:11;100830.38;;;7.71;100.00
8653;BME280;4364;52.426;9.424;2023-02-23T13:00:47;100817.06;;;7.92;100.00
8653;BME280;4364;52.426;9.424;2023-02-23T13:03:11;100821.25;;;7.77;100.00
8653;BME280;4364;52.426;9.424;2023-02-23T13:06:05;100833.97;;;7.77;100.00
8653;BME280;4364;52.426;9.424;2023-02-23T13:11:56;100825.81;;;7.72;100.00
8653;BME280;4364;52.426;9.424;2023-02-23T13:14:27;100831.63;;;7.86;100.00
8653;BME280;4364;52.426;9.424;2023-02-23T13:17:04;100821.03;;;7.84;100.00
8653;BME280;4364;52.426;9.424;2023-02-23T13:19:40;100820.78;;;7.86;100.00
8653;BME280;4364;52.426;9.424;2023-02-23T13:22:34;100826.31;;;7.96;100.00
8653;BME280;4364;52.426;9.424;2023-02-23T13:25:22;100817.84;;;7.87;100.00
8653;BME280;4364;52.426;9.424;2023-02-23T13:27:57;100820.25;;;7.84;100.00
8653;BME280;4364;52.426;9.424;2023-02-23T13:30:29;100814.38;;;7.92;100.00
8653;BME280;4364;52.426;9.424;2023-02-23T13:33:09;100815.84;;;7.77;100.00
8653;BME280;4364;52.426;9.424;2023-02-23T13:35:38;100818.69;;;7.93;100.00
8653;BME280;4364;52.426;9.424;2023-02-23T13:38:14;100817.53;;;7.84;100.00
8653;BME280;4364;52.426;9.424;2023-02-23T13:40:51;100815.13;;;7.87;100.00
8653;BME280;4364;52.426;9.424;2023-02-23T13:43:27;100814.72;;;8.01;100.00
8653;BME280;4364;52.426;9.424;2023-02-23T13:46:04;100812.56;;;8.03;100.00
8653;BME280;4364;52.426;9.424;2023-02-23T13:48:59;100815.97;;;7.93;100.00
8653;BME280;4364;52.426;9.424;2023-02-23T13:51:48;100820.69;;;8.03;100.00
8653;BME280;4364;52.426;9.424;2023-02-23T13:54:23;100818.38;;;7.89;100.00
8653;BME280;4364;52.426;9.424;2023-02-23T13:56:58;100822.91;;;7.78;100.00
8653;BME280;4364;52.426;9.424;2023-02-23T13:59:29;100822.00;;;7.73;100.00
8653;BME280;4364;52.426;9.424;2023-02-23T14:02:01;100820.69;;;7.75;100.00
8653;BME280;4364;52.426;9.424;2023-02-23T14:04:35;100818.50;;;7.72;100.00
8653;BME280;4364;52.426;9.424;2023-02-23T14:09:37;100827.97;;;7.75;100.00
8653;BME280;4364;52.426;9.424;2023-02-23T14:12:39;100827.41;;;7.73;100.00
8653;BME280;4364;52.426;9.424;2023-02-23T14:18:01;100820.41;;;7.72;100.00
8653;BME280;4364;52.426;9.424;2023-02-23T14:31:29;100824.09;;;7.66;100.00
8653;BME280;4364;52.426;9.424;2023-02-23T14:33:58;100822.25;;;7.71;100.00
8653;BME280;4364;52.426;9.424;2023-02-23T14:36:28;100827.72;;;7.76;100.00
8653;BME280;4364;52.426;9.424;2023-02-23T14:39:06;100823.22;;;7.60;100.00
8653;BME280;4364;52.426;9.424;2023-02-23T14:41:39;100827.41;;;7.73;100.00
8653;BME280;4364;52.426;9.424;2023-02-23T14:44:14;100828.03;;;7.80;100.00
8653;BME280;4364;52.426;9.424;2023-02-23T14:47:03;100826.25;;;7.64;100.00
8653;BME280;4364;52.426;9.424;2023-02-23T14:49:35;100834.31;;;7.58;100.00